sensor_id;sensor_type;location;lat;lon;timestamp;pressure;altitude;pressure_sealevel;temperature;humidity
17781;BME280;8498;52.516;13.790;2023-05-24T00:01:50;101234.19;;;13.21;69.31
17781;BME280;8498;52.516;13.790;2023-05-24T00:07:12;101229.91;;;13.19;69.19
17781;BME280;8498;52.516;13.790;2023-05-24T00:12:35;101227.59;;;13.14;69.25
17781;BME280;8498;52.516;13.790;2023-05-24T00:17:57;101239.19;;;13.13;69.68
17781;BME280;8498;52.516;13.790;2023-05-24T00:23:20;101232.47;;;12.95;69.94
17781;BME280;8498;52.516;13.790;2023-05-24T00:28:42;101235.03;;;12.97;70.20
17781;BME280;8498;52.516;13.790;2023-05-24T00:34:05;101245.69;;;12.84;70.55
17781;BME280;8498;52.516;13.790;2023-05-24T00:39:29;101245.47;;;12.87;70.26
17781;BME280;8498;52.516;13.790;2023-05-24T00:44:51;101246.53;;;12.84;69.92
17781;BME280;8498;52.516;13.790;2023-05-24T00:50:14;101245.69;;;12.84;69.77
17781;BME280;8498;52.516;13.790;2023-05-24T00:55:38;101247.78;;;12.79;69.32
17781;BME280;8498;52.516;13.790;2023-05-24T01:01:03;101253.56;;;12.73;69.95
17781;BME280;8498;52.516;13.790;2023-05-24T01:06:27;101248.19;;;12.60;69.58
17781;BME280;8498;52.516;13.790;2023-05-24T01:17:42;101252.88;;;12.57;69.78
17781;BME280;8498;52.516;13.790;2023-05-24T01:23:17;101248.16;;;12.47;69.97
17781;BME280;8498;52.516;13.790;2023-05-24T01:28:47;101246.81;;;12.55;69.82
17781;BME280;8498;52.516;13.790;2023-05-24T01:34:10;101250.91;;;12.46;69.64
17781;BME280;8498;52.516;13.790;2023-05-24T01:39:34;101258.63;;;12.50;69.74
17781;BME280;8498;52.516;13.790;2023-05-24T01:45:28;101264.56;;;12.41;69.39
17781;BME280;8498;52.516;13.790;2023-05-24T01:50:57;101276.59;;;12.34;69.38
17781;BME280;8498;52.516;13.790;2023-05-24T01:56:21;101277.69;;;12.18;69.78
17781;BME280;8498;52.516;13.790;2023-05-24T02:01:46;101274.00;;;12.06;69.95
17781;BME280;8498;52.516;13.790;2023-05-24T02:07:09;101278.88;;;11.99;71.23
17781;BME280;8498;52.516;13.790;2023-05-24T02:12:32;101271.19;;;11.95;71.09
17781;BME280;8498;52.516;13.790;2023-05-24T02:17:54;101268.56;;;11.81;71.81
17781;BME280;8498;52.516;13.790;2023-05-24T02:23:17;101272.81;;;11.55;72.79
17781;BME280;8498;52.516;13.790;2023-05-24T02:28:39;101265.34;;;11.47;73.45
17781;BME280;8498;52.516;13.790;2023-05-24T02:34:02;101262.03;;;11.29;74.25
17781;BME280;8498;52.516;13.790;2023-05-24T02:39:24;101256.00;;;10.97;75.28
17781;BME280;8498;52.516;13.790;2023-05-24T02:44:47;101261.22;;;10.85;76.39
17781;BME280;8498;52.516;13.790;2023-05-24T02:50:11;101262.88;;;10.72;76.77
17781;BME280;8498;52.516;13.790;2023-05-24T02:55:33;101265.75;;;10.69;77.70
17781;BME280;8498;52.516;13.790;2023-05-24T03:00:55;101273.56;;;10.86;77.84
17781;BME280;8498;52.516;13.790;2023-05-24T03:06:18;101265.69;;;11.13;76.69
17781;BME280;8498;52.516;13.790;2023-05-24T03:11:40;101267.22;;;11.45;75.36
17781;BME280;8498;52.516;13.790;2023-05-24T03:17:02;101268.94;;;11.60;74.16
17781;BME280;8498;52.516;13.790;2023-05-24T03:22:25;101267.81;;;11.79;73.69
17781;BME280;8498;52.516;13.790;2023-05-24T03:27:47;101271.41;;;11.92;73.08
17781;BME280;8498;52.516;13.790;2023-05-24T03:33:10;101275.94;;;12.04;72.53
17781;BME280;8498;52.516;13.790;2023-05-24T03:38:33;101267.72;;;12.07;72.17
17781;BME280;8498;52.516;13.790;2023-05-24T03:43:55;101278.28;;;12.08;72.48
17781;BME280;8498;52.516;13.790;2023-05-24T03:49:18;101277.06;;;12.14;71.95
17781;BME280;8498;52.516;13.790;2023-05-24T03:54:40;101278.44;;;12.20;72.23
17781;BME280;8498;52.516;13.790;2023-05-24T04:00:03;101284.97;;;12.28;71.39
17781;BME280;8498;52.516;13.790;2023-05-24T04:05:34;101299.16;;;12.56;71.07
17781;BME280;8498;52.516;13.790;2023-05-24T04:10:58;101293.50;;;12.60;70.65
17781;BME280;8498;52.516;13.790;2023-05-24T04:16:21;101290.22;;;12.69;70.30
17781;BME280;8498;52.516;13.790;2023-05-24T04:21:45;101296.41;;;12.70;70.69
17781;BME280;8498;52.516;13.790;2023-05-24T04:27:08;101300.78;;;12.71;70.63
17781;BME280;8498;52.516;13.790;2023-05-24T04:32:31;101295.88;;;12.77;70.93
17781;BME280;8498;52.516;13.790;2023-05-24T04:37:53;101314.53;;;12.65;71.67
17781;BME280;8498;52.516;13.790;2023-05-24T04:43:16;101312.06;;;12.62;71.61
17781;BME280;8498;52.516;13.790;2023-05-24T04:48:38;101325.81;;;12.56;71.44
17781;BME280;8498;52.516;13.790;2023-05-24T04:54:01;101327.78;;;12.79;70.81
17781;BME280;8498;52.516;13.790;2023-05-24T04:59:29;101337.91;;;12.74;70.36
17781;BME280;8498;52.516;13.790;2023-05-24T05:04:52;101338.88;;;12.73;70.62
17781;BME280;8498;52.516;13.790;2023-05-24T05:10:15;101344.47;;;12.95;70.03
17781;BME280;8498;52.516;13.790;2023-05-24T05:15:37;101353.00;;;13.00;69.70
17781;BME280;8498;52.516;13.790;2023-05-24T05:21:02;101348.22;;;13.05;69.25
17781;BME280;8498;52.516;13.790;2023-05-24T05:26:28;101350.63;;;13.22;69.24
17781;BME280;8498;52.516;13.790;2023-05-24T05:31:51;101356.72;;;13.50;68.03
17781;BME280;8498;52.516;13.790;2023-05-24T05:37:13;101358.44;;;13.64;67.62
17781;BME280;8498;52.516;13.790;2023-05-24T05:42:36;101361.00;;;13.27;66.87
17781;BME280;8498;52.516;13.790;2023-05-24T05:47:58;101365.47;;;13.65;66.26
17781;BME280;8498;52.516;13.790;2023-05-24T05:53:21;101370.19;;;13.36;66.33
17781;BME280;8498;52.516;13.790;2023-05-24T05:58:43;101377.22;;;13.75;65.16
17781;BME280;8498;52.516;13.790;2023-05-24T06:04:06;101373.69;;;14.00;64.39
17781;BME280;8498;52.516;13.790;2023-05-24T06:09:29;101378.22;;;14.23;63.27
17781;BME280;8498;52.516;13.790;2023-05-24T06:14:51;101388.59;;;14.27;63.18
17781;BME280;8498;52.516;13.790;2023-05-24T06:20:14;101398.81;;;14.46;62.70
17781;BME280;8498;52.516;13.790;2023-05-24T06:25:38;101401.53;;;14.21;62.97
17781;BME280;8498;52.516;13.790;2023-05-24T06:31:04;101402.31;;;13.98;63.51
17781;BME280;8498;52.516;13.790;2023-05-24T06:36:26;101406.03;;;14.20;61.71
17781;BME280;8498;52.516;13.790;2023-05-24T06:41:49;101408.63;;;13.96;64.01
17781;BME280;8498;52.516;13.790;2023-05-24T06:47:19;101413.66;;;14.01;63.31
17781;BME280;8498;52.516;13.790;2023-05-24T06:52:42;101418.03;;;13.89;64.11
17781;BME280;8498;52.516;13.790;2023-05-24T06:58:06;101428.69;;;14.02;63.18
17781;BME280;8498;52.516;13.790;2023-05-24T07:03:31;101437.03;;;13.98;63.24
17781;BME280;8498;52.516;13.790;2023-05-24T07:08:53;101435.75;;;14.03;62.79
17781;BME280;8498;52.516;13.790;2023-05-24T07:14:16;101434.47;;;14.09;62.82
17781;BME280;8498;52.516;13.790;2023-05-24T07:19:38;101445.56;;;14.15;62.61
17781;BME280;8498;52.516;13.790;2023-05-24T07:25:02;101444.16;;;14.35;62.03
17781;BME280;8498;52.516;13.790;2023-05-24T07:30:25;101459.34;;;14.47;61.08
17781;BME280;8498;52.516;13.790;2023-05-24T07:35:55;101460.94;;;14.37;61.88
17781;BME280;8498;52.516;13.790;2023-05-24T07:41:18;101465.88;;;14.43;61.20
17781;BME280;8498;52.516;13.790;2023-05-24T07:46:40;101466.28;;;14.62;59.72
17781;BME280;8498;52.516;13.790;2023-05-24T07:52:03;101468.22;;;15.08;58.95
17781;BME280;8498;52.516;13.790;2023-05-24T07:57:27;101469.94;;;15.09;57.82
17781;BME280;8498;52.516;13.790;2023-05-24T08:02:50;101471.19;;;15.16;57.94
17781;BME280;8498;52.516;13.790;2023-05-24T08:08:13;101475.28;;;15.33;57.69
17781;BME280;8498;52.516;13.790;2023-05-24T08:13:37;101482.16;;;15.48;55.59
17781;BME280;8498;52.516;13.790;2023-05-24T08:18:59;101479.13;;;15.53;55.73
17781;BME280;8498;52.516;13.790;2023-05-24T08:24:22;101483.00;;;15.49;53.40
17781;BME280;8498;52.516;13.790;2023-05-24T08:29:44;101487.38;;;15.50;54.47
17781;BME280;8498;52.516;13.790;2023-05-24T08:35:07;101498.47;;;15.45;55.96
17781;BME280;8498;52.516;13.790;2023-05-24T08:40:42;101499.28;;;15.34;55.79
17781;BME280;8498;52.516;13.790;2023-05-24T08:46:05;101501.16;;;15.21;56.13
17781;BME280;8498;52.516;13.790;2023-05-24T08:51:30;101495.53;;;15.48;55.38
17781;BME280;8498;52.516;13.790;2023-05-24T08:56:52;101508.31;;;15.45;53.21
17781;BME280;8498;52.516;13.790;2023-05-24T09:02:16;101506.75;;;15.53;52.10
17781;BME280;8498;52.516;13.790;2023-05-24T09:07:44;101515.25;;;15.71;51.97
17781;BME280;8498;52.516;13.790;2023-05-24T09:13:07;101517.88;;;15.60;53.19
17781;BME280;8498;52.516;13.790;2023-05-24T09:18:31;101517.97;;;15.82;53.44
17781;BME280;8498;52.516;13.790;2023-05-24T09:23:54;101529.34;;;15.62;53.97
17781;BME280;8498;52.516;13.790;2023-05-24T09:29:21;101522.16;;;15.62;53.60
17781;BME280;8498;52.516;13.790;2023-05-24T09:34:44;101523.28;;;15.71;53.73
17781;BME280;8498;52.516;13.790;2023-05-24T09:40:19;101524.84;;;15.97;53.00
17781;BME280;8498;52.516;13.790;2023-05-24T09:45:45;101516.59;;;16.34;52.86
17781;BME280;8498;52.516;13.790;2023-05-24T09:51:08;101518.19;;;16.59;51.90
17781;BME280;8498;52.516;13.790;2023-05-24T09:56:34;101528.31;;;16.77;51.43
17781;BME280;8498;52.516;13.790;2023-05-24T10:02:07;101529.25;;;16.54;51.90
17781;BME280;8498;52.516;13.790;2023-05-24T10:07:33;101539.38;;;16.28;52.42
17781;BME280;8498;52.516;13.790;2023-05-24T10:12:56;101535.47;;;16.43;52.27
17781;BME280;8498;52.516;13.790;2023-05-24T10:18:19;101541.47;;;16.36;51.57
17781;BME280;8498;52.516;13.790;2023-05-24T10:23:42;101550.13;;;16.39;52.33
17781;BME280;8498;52.516;13.790;2023-05-24T10:29:11;101550.53;;;16.68;51.88
17781;BME280;8498;52.516;13.790;2023-05-24T10:34:38;101550.38;;;16.92;52.67
17781;BME280;8498;52.516;13.790;2023-05-24T10:40:00;101541.22;;;17.81;50.09
17781;BME280;8498;52.516;13.790;2023-05-24T10:50:46;101553.66;;;17.50;51.45
17781;BME280;8498;52.516;13.790;2023-05-24T10:56:08;101551.53;;;18.48;48.12
17781;BME280;8498;52.516;13.790;2023-05-24T11:01:31;101548.50;;;19.12;46.50
17781;BME280;8498;52.516;13.790;2023-05-24T11:06:57;101548.16;;;18.04;47.83
17781;BME280;8498;52.516;13.790;2023-05-24T11:12:29;101558.16;;;17.49;49.46
17781;BME280;8498;52.516;13.790;2023-05-24T11:18:12;101563.25;;;17.20;50.30
17781;BME280;8498;52.516;13.790;2023-05-24T11:23:35;101558.91;;;17.51;50.07
17781;BME280;8498;52.516;13.790;2023-05-24T11:29:00;101546.72;;;18.00;49.08
17781;BME280;8498;52.516;13.790;2023-05-24T11:34:26;101553.88;;;18.62;47.67
17781;BME280;8498;52.516;13.790;2023-05-24T11:39:51;101546.47;;;19.63;45.13
17781;BME280;8498;52.516;13.790;2023-05-24T11:45:16;101547.41;;;20.20;43.55
17781;BME280;8498;52.516;13.790;2023-05-24T11:50:41;101545.31;;;20.14;42.07
17781;BME280;8498;52.516;13.790;2023-05-24T11:56:11;101548.13;;;19.35;43.16
17781;BME280;8498;52.516;13.790;2023-05-24T12:01:33;101550.16;;;19.53;43.71
17781;BME280;8498;52.516;13.790;2023-05-24T12:06:56;101548.19;;;18.95;44.91
17781;BME280;8498;52.516;13.790;2023-05-24T12:12:20;101558.63;;;18.07;45.87
17781;BME280;8498;52.516;13.790;2023-05-24T12:17:58;101557.19;;;18.45;45.75
17781;BME280;8498;52.516;13.790;2023-05-24T12:23:25;101546.31;;;19.84;44.17
17781;BME280;8498;52.516;13.790;2023-05-24T12:28:54;101554.88;;;20.82;41.22
17781;BME280;8498;52.516;13.790;2023-05-24T12:34:20;101550.84;;;21.41;39.29
17781;BME280;8498;52.516;13.790;2023-05-24T12:39:43;101549.53;;;21.00;40.38
17781;BME280;8498;52.516;13.790;2023-05-24T12:45:06;101551.88;;;21.58;39.71
17781;BME280;8498;52.516;13.790;2023-05-24T12:50:29;101544.19;;;21.71;39.16
17781;BME280;8498;52.516;13.790;2023-05-24T12:55:52;101545.84;;;21.64;38.09
17781;BME280;8498;52.516;13.790;2023-05-24T13:01:17;101535.84;;;21.82;38.89
17781;BME280;8498;52.516;13.790;2023-05-24T13:06:41;101547.16;;;21.15;39.70
17781;BME280;8498;52.516;13.790;2023-05-24T13:12:03;101549.22;;;20.29;41.42
17781;BME280;8498;52.516;13.790;2023-05-24T13:17:27;101557.53;;;19.99;42.63
17781;BME280;8498;52.516;13.790;2023-05-24T13:22:50;101553.25;;;20.35;42.29
17781;BME280;8498;52.516;13.790;2023-05-24T13:28:12;101546.72;;;20.92;41.18
17781;BME280;8498;52.516;13.790;2023-05-24T13:33:34;101548.63;;;21.37;40.83
17781;BME280;8498;52.516;13.790;2023-05-24T13:38:58;101543.63;;;21.14;40.02
17781;BME280;8498;52.516;13.790;2023-05-24T13:44:36;101554.06;;;20.45;41.68
17781;BME280;8498;52.516;13.790;2023-05-24T13:49:59;101557.78;;;20.15;43.02
17781;BME280;8498;52.516;13.790;2023-05-24T13:55:22;101555.53;;;19.62;43.47
17781;BME280;8498;52.516;13.790;2023-05-24T14:00:45;101550.00;;;20.96;41.21
17781;BME280;8498;52.516;13.790;2023-05-24T14:06:08;101554.78;;;21.82;40.05
17781;BME280;8498;52.516;13.790;2023-05-24T14:11:31;101555.19;;;22.31;39.27
17781;BME280;8498;52.516;13.790;2023-05-24T14:16:55;101554.22;;;21.96;38.80
17781;BME280;8498;52.516;13.790;2023-05-24T14:22:17;101542.75;;;22.46;37.87
17781;BME280;8498;52.516;13.790;2023-05-24T14:27:40;101543.44;;;21.61;39.08
17781;BME280;8498;52.516;13.790;2023-05-24T14:33:05;101539.09;;;22.63;38.35
17781;BME280;8498;52.516;13.790;2023-05-24T14:38:29;101534.47;;;23.24;36.74
17781;BME280;8498;52.516;13.790;2023-05-24T14:43:53;101537.13;;;22.14;38.12
17781;BME280;8498;52.516;13.790;2023-05-24T14:49:16;101540.38;;;20.46;40.24
17781;BME280;8498;52.516;13.790;2023-05-24T14:54:38;101539.31;;;20.67;41.11
17781;BME280;8498;52.516;13.790;2023-05-24T15:00:02;101533.84;;;21.84;39.55
17781;BME280;8498;52.516;13.790;2023-05-24T15:05:27;101529.03;;;21.96;38.19
17781;BME280;8498;52.516;13.790;2023-05-24T15:10:49;101540.44;;;22.25;37.52
17781;BME280;8498;52.516;13.790;2023-05-24T15:16:12;101543.00;;;22.61;37.96
17781;BME280;8498;52.516;13.790;2023-05-24T15:21:35;101530.41;;;22.18;37.52
17781;BME280;8498;52.516;13.790;2023-05-24T15:27:00;101544.19;;;22.32;38.23
17781;BME280;8498;52.516;13.790;2023-05-24T15:32:23;101539.97;;;22.98;36.91
17781;BME280;8498;52.516;13.790;2023-05-24T15:37:46;101532.44;;;23.34;35.84
17781;BME280;8498;52.516;13.790;2023-05-24T15:43:09;101534.19;;;22.33;36.80
17781;BME280;8498;52.516;13.790;2023-05-24T15:48:31;101542.38;;;21.54;39.53
17781;BME280;8498;52.516;13.790;2023-05-24T15:53:54;101537.28;;;22.12;39.00
17781;BME280;8498;52.516;13.790;2023-05-24T15:59:16;101539.44;;;22.01;38.90
17781;BME280;8498;52.516;13.790;2023-05-24T16:04:42;101535.69;;;22.02;39.18
17781;BME280;8498;52.516;13.790;2023-05-24T16:10:04;101544.25;;;21.97;38.74
17781;BME280;8498;52.516;13.790;2023-05-24T16:15:27;101544.09;;;22.42;37.45
17781;BME280;8498;52.516;13.790;2023-05-24T16:20:51;101540.56;;;22.76;37.65
17781;BME280;8498;52.516;13.790;2023-05-24T16:26:13;101542.63;;;22.82;37.90
17781;BME280;8498;52.516;13.790;2023-05-24T16:31:36;101536.72;;;22.52;38.14
17781;BME280;8498;52.516;13.790;2023-05-24T16:36:59;101537.09;;;22.31;38.23
17781;BME280;8498;52.516;13.790;2023-05-24T16:42:21;101546.66;;;22.18;38.31
17781;BME280;8498;52.516;13.790;2023-05-24T16:47:44;101545.25;;;21.96;38.72
17781;BME280;8498;52.516;13.790;2023-05-24T16:53:07;101546.06;;;21.88;39.19
17781;BME280;8498;52.516;13.790;2023-05-24T16:58:29;101543.22;;;21.54;39.20
17781;BME280;8498;52.516;13.790;2023-05-24T17:03:51;101542.91;;;21.12;39.82
17781;BME280;8498;52.516;13.790;2023-05-24T17:09:14;101536.03;;;20.73;40.95
17781;BME280;8498;52.516;13.790;2023-05-24T17:14:37;101551.22;;;20.37;41.49
17781;BME280;8498;52.516;13.790;2023-05-24T17:19:59;101549.13;;;20.11;41.90
17781;BME280;8498;52.516;13.790;2023-05-24T17:25:22;101560.66;;;19.85;42.28
17781;BME280;8498;52.516;13.790;2023-05-24T17:30:44;101563.22;;;19.57;42.50
17781;BME280;8498;52.516;13.790;2023-05-24T17:36:07;101564.66;;;19.61;43.16
17781;BME280;8498;52.516;13.790;2023-05-24T17:41:31;101573.88;;;19.49;43.51
17781;BME280;8498;52.516;13.790;2023-05-24T17:46:53;101572.25;;;19.27;44.17
17781;BME280;8498;52.516;13.790;2023-05-24T17:52:18;101570.22;;;19.10;45.39
17781;BME280;8498;52.516;13.790;2023-05-24T17:57:41;101574.66;;;18.90;44.90
17781;BME280;8498;52.516;13.790;2023-05-24T18:03:03;101574.66;;;18.90;45.05
17781;BME280;8498;52.516;13.790;2023-05-24T18:08:26;101575.63;;;18.80;45.98
17781;BME280;8498;52.516;13.790;2023-05-24T18:13:48;101579.81;;;18.63;46.71
17781;BME280;8498;52.516;13.790;2023-05-24T18:19:11;101585.78;;;18.46;47.91
17781;BME280;8498;52.516;13.790;2023-05-24T18:24:33;101590.78;;;18.29;48.55
17781;BME280;8498;52.516;13.790;2023-05-24T18:29:56;101592.38;;;18.11;49.68
17781;BME280;8498;52.516;13.790;2023-05-24T18:35:18;101604.44;;;17.96;49.95
17781;BME280;8498;52.516;13.790;2023-05-24T18:40:41;101608.53;;;17.79;51.51
17781;BME280;8498;52.516;13.790;2023-05-24T18:46:04;101612.41;;;17.43;53.70
17781;BME280;8498;52.516;13.790;2023-05-24T18:51:27;101618.69;;;17.21;54.75
17781;BME280;8498;52.516;13.790;2023-05-24T18:56:50;101620.28;;;16.79;57.20
17781;BME280;8498;52.516;13.790;2023-05-24T19:02:12;101625.59;;;16.46;58.76
17781;BME280;8498;52.516;13.790;2023-05-24T19:07:36;101642.84;;;16.31;59.87
17781;BME280;8498;52.516;13.790;2023-05-24T19:12:59;101654.50;;;16.07;61.51
17781;BME280;8498;52.516;13.790;2023-05-24T19:18:24;101655.41;;;15.95;62.03
17781;BME280;8498;52.516;13.790;2023-05-24T19:23:46;101650.06;;;15.71;62.99
17781;BME280;8498;52.516;13.790;2023-05-24T19:29:09;101662.63;;;15.58;63.87
17781;BME280;8498;52.516;13.790;2023-05-24T19:34:31;101656.47;;;15.45;64.59
17781;BME280;8498;52.516;13.790;2023-05-24T19:39:56;101673.06;;;15.37;65.50
17781;BME280;8498;52.516;13.790;2023-05-24T19:45:18;101675.00;;;15.35;65.82
17781;BME280;8498;52.516;13.790;2023-05-24T19:50:43;101673.13;;;15.25;66.47
17781;BME280;8498;52.516;13.790;2023-05-24T19:56:10;101684.47;;;15.16;67.83
17781;BME280;8498;52.516;13.790;2023-05-24T20:01:32;101686.63;;;14.98;68.48
17781;BME280;8498;52.516;13.790;2023-05-24T20:06:55;101678.72;;;14.84;69.39
17781;BME280;8498;52.516;13.790;2023-05-24T20:12:17;101687.06;;;14.79;69.25
17781;BME280;8498;52.516;13.790;2023-05-24T20:17:39;101682.75;;;14.64;69.81
17781;BME280;8498;52.516;13.790;2023-05-24T20:23:02;101701.38;;;14.40;70.09
17781;BME280;8498;52.516;13.790;2023-05-24T20:28:24;101695.81;;;14.16;71.31
17781;BME280;8498;52.516;13.790;2023-05-24T20:33:52;101695.00;;;14.02;72.29
17781;BME280;8498;52.516;13.790;2023-05-24T20:39:15;101706.44;;;13.91;72.65
17781;BME280;8498;52.516;13.790;2023-05-24T20:44:38;101702.53;;;13.82;72.88
17781;BME280;8498;52.516;13.790;2023-05-24T20:50:00;101712.69;;;13.63;73.65
17781;BME280;8498;52.516;13.790;2023-05-24T20:55:23;101706.81;;;13.58;74.17
17781;BME280;8498;52.516;13.790;2023-05-24T21:00:47;101710.06;;;13.49;74.46
17781;BME280;8498;52.516;13.790;2023-05-24T21:06:10;101726.69;;;13.26;75.12
17781;BME280;8498;52.516;13.790;2023-05-24T21:11:32;101731.03;;;13.12;75.72
17781;BME280;8498;52.516;13.790;2023-05-24T21:16:54;101737.88;;;13.02;76.12
17781;BME280;8498;52.516;13.790;2023-05-24T21:22:17;101741.03;;;12.95;76.38
17781;BME280;8498;52.516;13.790;2023-05-24T21:27:40;101750.88;;;12.78;76.84
17781;BME280;8498;52.516;13.790;2023-05-24T21:33:02;101749.06;;;12.79;76.77
17781;BME280;8498;52.516;13.790;2023-05-24T21:38:24;101755.84;;;12.70;76.85
17781;BME280;8498;52.516;13.790;2023-05-24T21:43:47;101753.22;;;12.55;77.06
17781;BME280;8498;52.516;13.790;2023-05-24T21:49:09;101757.16;;;12.33;78.07
17781;BME280;8498;52.516;13.790;2023-05-24T21:54:32;101756.72;;;12.25;78.19
17781;BME280;8498;52.516;13.790;2023-05-24T21:59:54;101767.75;;;12.19;78.63
17781;BME280;8498;52.516;13.790;2023-05-24T22:05:17;101775.25;;;12.12;78.55
17781;BME280;8498;52.516;13.790;2023-05-24T22:10:40;101767.34;;;12.11;79.01
17781;BME280;8498;52.516;13.790;2023-05-24T22:16:02;101770.78;;;11.97;78.89
17781;BME280;8498;52.516;13.790;2023-05-24T22:21:24;101768.88;;;11.84;79.52
17781;BME280;8498;52.516;13.790;2023-05-24T22:26:47;101769.34;;;11.74;79.60
17781;BME280;8498;52.516;13.790;2023-05-24T22:32:11;101776.13;;;11.82;79.55
17781;BME280;8498;52.516;13.790;2023-05-24T22:37:34;101780.72;;;11.62;80.24
17781;BME280;8498;52.516;13.790;2023-05-24T22:42:57;101778.28;;;11.58;80.29
17781;BME280;8498;52.516;13.790;2023-05-24T22:48:20;101783.19;;;11.50;80.78
17781;BME280;8498;52.516;13.790;2023-05-24T22:53:47;101781.88;;;11.41;80.42
17781;BME280;8498;52.516;13.790;2023-05-24T22:59:10;101779.88;;;11.29;80.69
17781;BME280;8498;52.516;13.790;2023-05-24T23:04:32;101779.88;;;11.12;81.40
17781;BME280;8498;52.516;13.790;2023-05-24T23:09:55;101778.66;;;11.19;81.17
17781;BME280;8498;52.516;13.790;2023-05-24T23:15:17;101770.81;;;11.16;80.77
17781;BME280;8498;52.516;13.790;2023-05-24T23:20:41;101772.31;;;11.04;80.89
17781;BME280;8498;52.516;13.790;2023-05-24T23:26:03;101768.28;;;10.97;81.29
17781;BME280;8498;52.516;13.790;2023-05-24T23:31:26;101776.94;;;11.00;81.43
17781;BME280;8498;52.516;13.790;2023-05-24T23:36:48;101777.19;;;10.96;81.54
17781;BME280;8498;52.516;13.790;2023-05-24T23:42:11;101783.81;;;11.04;82.25
17781;BME280;8498;52.516;13.790;2023-05-24T23:47:33;101787.25;;;11.07;82.52
17781;BME280;8498;52.516;13.790;2023-05-24T23:52:56;101791.75;;;11.22;82.49
17781;BME280;8498;52.516;13.790;2023-05-24T23:58:18;101787.84;;;11.29;83.27
